Time;durP1;ratioP1;P1;durP2;ratioP2;P2;SDS_P1;SDS_P2;PMS_P1;PMS_P2;Temp;Humidity;BMP_temperature;BMP_pressure;BME280_temperature;BME280_humidity;BME280_pressure;Samples;Min_cycle;Max_cycle;Signal;HPM_P1;HPM_P2
2023/05/01 00:01:45;;;;;;;30.40;7.10;;;20.40;57.00;;;;;;5100731;28;20282;-91
2023/05/01 00:04:12;;;;;;;33.17;6.57;;;20.40;57.00;;;;;;5088616;28;20329;-91
2023/05/01 00:06:39;;;;;;;34.97;7.13;;;20.40;57.00;;;;;;5097881;28;20224;-91
2023/05/01 00:09:08;;;;;;;32.30;6.53;;;20.40;57.00;;;;;;5118960;28;20293;-91
2023/05/01 00:11:36;;;;;;;32.37;6.60;;;20.40;57.00;;;;;;5112087;28;20224;-91
2023/05/01 00:14:03;;;;;;;27.37;6.27;;;20.40;57.00;;;;;;5108893;28;20270;-91
2023/05/01 00:16:30;;;;;;;29.30;6.63;;;20.40;57.00;;;;;;5096861;28;20290;-91
2023/05/01 00:18:57;;;;;;;37.63;7.03;;;20.40;57.00;;;;;;5091827;27;20208;-92
2023/05/01 00:21:24;;;;;;;29.90;6.47;;;20.40;57.00;;;;;;5111662;27;20273;-91
2023/05/01 00:23:51;;;;;;;38.33;6.97;;;20.30;57.00;;;;;;5126143;27;20225;-91
2023/05/01 00:26:20;;;;;;;47.10;8.03;;;20.30;57.00;;;;;;5108526;28;20209;-91
2023/05/01 00:28:47;;;;;;;40.03;7.40;;;20.30;57.00;;;;;;5104227;28;20230;-91
2023/05/01 00:31:24;;;;;;;33.00;6.40;;;20.30;57.00;;;;;;5107235;28;20198;-91
2023/05/01 00:33:53;;;;;;;32.90;6.40;;;20.30;57.00;;;;;;5106948;28;20208;-91
2023/05/01 00:36:20;;;;;;;43.57;7.80;;;20.30;57.00;;;;;;5105566;28;20237;-91
2023/05/01 00:38:47;;;;;;;34.07;6.97;;;20.30;57.00;;;;;;5106431;28;20245;-91
2023/05/01 00:41:15;;;;;;;25.93;6.10;;;20.30;57.00;;;;;;5106833;28;20237;-91
2023/05/01 00:43:43;;;;;;;31.23;7.00;;;20.30;57.00;;;;;;5098281;28;20226;-91
2023/05/01 00:46:13;;;;;;;29.23;6.20;;;20.30;57.00;;;;;;5105720;28;20230;-91
2023/05/01 00:48:40;;;;;;;32.60;7.07;;;20.20;56.90;;;;;;5106485;28;20214;-90
2023/05/01 00:51:08;;;;;;;37.93;6.97;;;20.20;56.90;;;;;;5107063;28;20292;-90
2023/05/01 00:53:36;;;;;;;40.30;7.37;;;20.30;57.00;;;;;;5105652;28;20200;-91
2023/05/01 00:56:03;;;;;;;39.73;7.33;;;20.30;57.00;;;;;;5108009;28;20284;-91
2023/05/01 00:58:30;;;;;;;48.97;8.13;;;20.30;57.00;;;;;;5109327;28;20206;-91
2023/05/01 01:00:58;;;;;;;51.47;9.03;;;20.20;56.90;;;;;;5107833;27;20733;-91
2023/05/01 01:03:25;;;;;;;35.23;7.30;;;20.20;56.90;;;;;;5110108;28;20222;-92
2023/05/01 01:05:56;;;;;;;29.83;6.53;;;20.20;56.90;;;;;;5112801;28;20197;-91
2023/05/01 01:08:31;;;;;;;40.07;7.63;;;20.20;56.90;;;;;;5109929;27;20281;-92
2023/05/01 01:11:08;;;;;;;56.93;9.47;;;20.20;56.90;;;;;;5106811;28;20277;-91
2023/05/01 01:13:43;;;;;;;31.97;6.87;;;20.20;56.90;;;;;;5108395;28;20219;-91
2023/05/01 01:16:18;;;;;;;34.33;6.43;;;20.20;56.90;;;;;;5109165;28;20212;-91
2023/05/01 01:18:59;;;;;;;30.80;7.33;;;20.20;56.90;;;;;;5109747;28;20255;-91
2023/05/01 01:21:31;;;;;;;35.20;7.03;;;20.10;56.80;;;;;;5097707;28;20198;-91
2023/05/01 01:24:22;;;;;;;29.03;6.80;;;20.20;56.90;;;;;;5108964;27;20772;-91
2023/05/01 01:27:13;;;;;;;38.93;7.23;;;20.20;56.90;;;;;;5094178;28;20206;-91
2023/05/01 01:30:01;;;;;;;38.83;7.40;;;20.20;56.90;;;;;;5109667;27;20639;-91
2023/05/01 01:32:56;;;;;;;27.67;6.57;;;20.10;56.80;;;;;;5110629;28;20194;-91
2023/05/01 01:35:27;;;;;;;31.53;6.70;;;20.10;56.80;;;;;;5100964;28;20290;-92
2023/05/01 01:38:01;;;;;;;35.17;7.47;;;20.10;56.80;;;;;;5104104;28;20293;-91
2023/05/01 01:40:34;;;;;;;35.77;6.83;;;20.10;56.80;;;;;;5108340;27;20578;-91
2023/05/01 01:43:05;;;;;;;30.97;6.53;;;20.10;56.90;;;;;;5098550;28;20245;-92
2023/05/01 01:45:37;;;;;;;27.53;6.20;;;20.10;56.90;;;;;;5100071;28;20223;-91
2023/05/01 01:48:08;;;;;;;28.63;6.37;;;20.10;56.90;;;;;;5105254;28;20286;-90
2023/05/01 01:50:38;;;;;;;32.37;6.83;;;20.10;56.90;;;;;;5096778;28;20281;-91
2023/05/01 01:53:08;;;;;;;31.07;6.53;;;20.10;56.90;;;;;;5097976;28;20206;-91
2023/05/01 01:55:39;;;;;;;46.27;7.93;;;20.10;56.90;;;;;;5098958;28;20217;-91
2023/05/01 01:58:09;;;;;;;30.13;6.90;;;20.10;56.90;;;;;;5096014;28;20666;-91
2023/05/01 02:00:37;;;;;;;48.10;8.00;;;20.00;56.80;;;;;;5109998;28;20198;-91
2023/05/01 02:03:05;;;;;;;32.93;7.33;;;20.00;56.80;;;;;;5092434;28;20749;-92
2023/05/01 02:05:33;;;;;;;32.97;7.23;;;20.00;56.80;;;;;;5099247;28;20217;-91
2023/05/01 02:08:04;;;;;;;40.30;7.53;;;20.00;56.80;;;;;;5109418;28;20231;-91
2023/05/01 02:10:33;;;;;;;31.03;7.20;;;20.00;56.80;;;;;;5120024;27;20292;-91
2023/05/01 02:13:01;;;;;;;29.20;6.37;;;20.00;56.80;;;;;;5112830;27;20245;-91
2023/05/01 02:15:30;;;;;;;52.83;8.83;;;20.00;56.80;;;;;;5109991;28;20623;-92
2023/05/01 02:17:58;;;;;;;34.07;7.37;;;20.00;56.80;;;;;;5115284;27;20645;-92
2023/05/01 02:20:25;;;;;;;31.77;6.87;;;20.00;56.90;;;;;;5131747;27;20205;-92
2023/05/01 02:22:52;;;;;;;44.23;7.87;;;20.00;56.90;;;;;;5116443;27;20206;-92
2023/05/01 02:25:21;;;;;;;36.67;6.93;;;20.00;56.90;;;;;;5105006;28;20202;-92
2023/05/01 02:27:55;;;;;;;51.77;8.33;;;20.00;56.80;;;;;;5106327;28;20237;-91
2023/05/01 02:30:24;;;;;;;23.43;6.33;;;20.00;56.80;;;;;;5109660;28;20663;-91
2023/05/01 02:32:51;;;;;;;34.93;7.07;;;20.00;56.80;;;;;;5102681;28;20198;-91
2023/05/01 02:35:21;;;;;;;51.73;8.27;;;19.90;56.70;;;;;;5103421;28;20198;-92
2023/05/01 02:37:48;;;;;;;42.07;8.23;;;20.00;56.80;;;;;;5109272;28;20198;-91
2023/05/01 02:40:15;;;;;;;32.13;7.37;;;19.90;56.70;;;;;;5108612;28;20285;-91
2023/05/01 02:42:48;;;;;;;32.13;6.97;;;19.90;56.80;;;;;;5108625;27;20642;-92
2023/05/01 02:45:19;;;;;;;32.60;6.93;;;19.90;56.70;;;;;;5101612;28;20241;-92
2023/05/01 02:47:50;;;;;;;46.23;8.43;;;19.90;56.80;;;;;;5094630;28;20841;-91
2023/05/01 02:50:18;;;;;;;31.37;7.00;;;19.90;56.70;;;;;;5094538;28;20242;-91
2023/05/01 02:52:47;;;;;;;34.60;7.60;;;19.90;56.70;;;;;;5109632;27;20281;-91
2023/05/01 02:55:14;;;;;;;41.67;7.87;;;19.90;56.80;;;;;;5105871;28;20213;-91
2023/05/01 02:57:43;;;;;;;31.23;7.10;;;19.90;56.70;;;;;;5108221;28;20259;-91
2023/05/01 03:00:12;;;;;;;57.57;9.20;;;19.90;56.70;;;;;;5105502;28;20857;-91
2023/05/01 03:02:39;;;;;;;51.60;8.67;;;19.90;56.70;;;;;;5091146;28;20222;-91
2023/05/01 03:05:07;;;;;;;44.23;7.97;;;19.90;56.70;;;;;;5117125;27;20313;-91
2023/05/01 03:07:34;;;;;;;41.43;7.87;;;19.90;56.80;;;;;;5105759;28;20676;-91
2023/05/01 03:10:03;;;;;;;43.90;7.93;;;19.90;56.80;;;;;;5105303;28;20293;-91
2023/05/01 03:12:32;;;;;;;47.97;8.37;;;19.80;56.70;;;;;;5099479;28;20202;-91
2023/05/01 03:15:00;;;;;;;37.50;7.20;;;19.80;56.70;;;;;;5109021;28;20202;-91
2023/05/01 03:17:28;;;;;;;37.03;7.43;;;19.80;56.70;;;;;;5107497;28;20277;-91
2023/05/01 03:19:55;;;;;;;28.77;7.27;;;19.80;56.70;;;;;;5108952;28;20229;-93
2023/05/01 03:22:22;;;;;;;27.67;6.93;;;19.80;56.70;;;;;;5105304;28;20283;-92
2023/05/01 03:24:49;;;;;;;38.07;8.10;;;19.80;56.70;;;;;;5108483;28;20310;-92
2023/05/01 03:27:16;;;;;;;52.20;9.27;;;19.80;56.70;;;;;;5104160;28;20614;-90
2023/05/01 03:29:43;;;;;;;35.87;7.37;;;19.80;56.70;;;;;;5109076;28;20198;-91
2023/05/01 03:32:12;;;;;;;27.17;7.33;;;19.80;56.70;;;;;;5109920;28;20240;-91
2023/05/01 03:34:39;;;;;;;30.87;7.33;;;19.80;56.70;;;;;;5106162;27;20210;-90
2023/05/01 03:37:06;;;;;;;27.90;7.30;;;19.80;56.70;;;;;;5108101;28;20210;-91
2023/05/01 03:39:33;;;;;;;27.80;7.50;;;19.80;56.70;;;;;;5107791;28;20202;-90
2023/05/01 03:42:02;;;;;;;31.63;8.03;;;19.70;56.60;;;;;;5104407;28;20265;-91
2023/05/01 03:44:29;;;;;;;36.63;8.47;;;19.80;56.70;;;;;;5089567;28;20305;-91
2023/05/01 03:46:56;;;;;;;33.20;8.30;;;19.70;56.70;;;;;;5108077;28;20749;-92
2023/05/01 03:49:25;;;;;;;39.67;8.83;;;19.70;56.70;;;;;;5109226;28;20234;-90
2023/05/01 03:51:52;;;;;;;32.17;8.23;;;19.70;56.70;;;;;;5100894;28;20249;-91
2023/05/01 03:54:18;;;;;;;42.37;9.03;;;19.70;56.70;;;;;;5105206;28;20195;-90
2023/05/01 03:56:46;;;;;;;49.67;9.70;;;19.70;56.70;;;;;;5105638;28;20593;-91
2023/05/01 03:59:13;;;;;;;28.37;8.00;;;19.70;56.70;;;;;;5108753;27;20194;-91
2023/05/01 04:01:40;;;;;;;57.87;10.77;;;19.70;56.70;;;;;;5094753;28;20210;-90
2023/05/01 04:04:07;;;;;;;34.57;8.83;;;19.70;56.70;;;;;;5100444;28;20229;-91
2023/05/01 04:06:37;;;;;;;32.73;9.03;;;19.70;56.70;;;;;;5104856;28;20205;-91
2023/05/01 04:09:07;;;;;;;30.20;9.63;;;19.70;56.70;;;;;;5095046;28;20234;-91
2023/05/01 04:11:34;;;;;;;53.93;11.03;;;19.70;56.70;;;;;;5105619;28;20233;-90
2023/05/01 04:14:01;;;;;;;43.10;10.17;;;19.70;56.70;;;;;;5097377;28;20242;-90
2023/05/01 04:16:28;;;;;;;37.37;9.33;;;19.70;56.70;;;;;;5104463;28;20634;-90
2023/05/01 04:18:55;;;;;;;39.37;10.33;;;19.70;56.70;;;;;;5107109;28;20208;-91
2023/05/01 04:21:22;;;;;;;54.67;11.87;;;19.70;56.70;;;;;;5122690;27;20204;-91
2023/05/01 04:23:50;;;;;;;34.30;8.77;;;19.60;56.60;;;;;;5107363;27;20256;-90
2023/05/01 04:26:17;;;;;;;52.80;11.13;;;19.70;56.70;;;;;;5108599;27;20232;-90
2023/05/01 04:28:44;;;;;;;40.47;10.53;;;19.60;56.70;;;;;;5104931;28;20203;-90
2023/05/01 04:31:11;;;;;;;29.83;10.37;;;19.60;56.70;;;;;;5104764;28;20982;-90
2023/05/01 04:33:38;;;;;;;40.43;10.77;;;19.60;56.70;;;;;;5105430;28;20301;-91
2023/05/01 04:36:06;;;;;;;28.63;9.53;;;19.60;56.70;;;;;;5106122;28;20216;-90
2023/05/01 04:38:35;;;;;;;38.77;11.43;;;19.60;56.70;;;;;;5105520;28;20217;-90
2023/05/01 04:41:05;;;;;;;35.70;10.07;;;19.60;56.70;;;;;;5105657;28;20198;-89
2023/05/01 04:43:32;;;;;;;37.13;11.00;;;19.60;56.70;;;;;;5095241;28;20306;-90
2023/05/01 04:45:59;;;;;;;39.80;11.97;;;19.60;56.70;;;;;;5102182;28;20324;-92
2023/05/01 04:48:26;;;;;;;51.87;11.80;;;19.60;56.70;;;;;;5101938;28;20204;-91
2023/05/01 04:50:54;;;;;;;78.80;14.97;;;19.60;56.70;;;;;;5091588;28;20209;-90
2023/05/01 04:53:21;;;;;;;44.00;11.37;;;19.60;56.70;;;;;;5115437;28;20201;-92
2023/05/01 04:55:48;;;;;;;44.50;11.47;;;19.50;56.60;;;;;;5108324;28;20285;-90
2023/05/01 04:58:18;;;;;;;37.43;11.10;;;19.50;56.60;;;;;;5107521;28;20285;-90
2023/05/01 05:00:45;;;;;;;45.20;11.77;;;19.50;56.60;;;;;;5104940;28;20292;-93
2023/05/01 05:03:13;;;;;;;45.13;11.37;;;19.50;56.60;;;;;;5103163;28;20299;-91
2023/05/01 05:05:40;;;;;;;38.17;11.03;;;19.50;56.60;;;;;;5108378;28;20236;-91
2023/05/01 05:08:08;;;;;;;41.97;10.97;;;19.50;56.60;;;;;;5108242;28;20298;-92
2023/05/01 05:10:35;;;;;;;53.60;12.43;;;19.50;56.60;;;;;;5089754;28;20646;-92
2023/05/01 05:13:02;;;;;;;54.93;12.67;;;19.50;56.60;;;;;;5104614;28;20615;-91
2023/05/01 05:15:30;;;;;;;45.53;11.40;;;19.50;56.60;;;;;;5105094;28;20617;-91
2023/05/01 05:17:57;;;;;;;41.33;11.40;;;19.50;56.60;;;;;;5102598;28;20198;-92
2023/05/01 05:20:24;;;;;;;48.23;12.03;;;19.50;56.60;;;;;;5099081;28;20240;-92
2023/05/01 05:22:51;;;;;;;39.43;12.07;;;19.50;56.60;;;;;;5099453;28;20228;-91
2023/05/01 05:25:18;;;;;;;36.87;10.87;;;19.50;56.60;;;;;;5106334;28;20827;-94
2023/05/01 05:27:45;;;;;;;39.20;11.30;;;19.50;56.60;;;;;;5102532;28;20225;-93
2023/05/01 05:30:13;;;;;;;36.30;11.80;;;19.40;56.50;;;;;;5103005;28;20285;-93
2023/05/01 05:32:41;;;;;;;66.53;14.60;;;19.50;56.60;;;;;;5091852;28;20724;-93
2023/05/01 05:35:08;;;;;;;38.70;11.63;;;19.40;56.60;;;;;;5095081;28;20284;-93
2023/05/01 05:37:35;;;;;;;49.73;12.80;;;19.40;56.60;;;;;;5098987;28;20210;-93
2023/05/01 05:40:05;;;;;;;51.90;12.73;;;19.40;56.50;;;;;;5100310;28;20238;-92
2023/05/01 05:42:32;;;;;;;35.80;11.30;;;19.40;56.60;;;;;;5109892;27;20219;-93
2023/05/01 05:44:59;;;;;;;61.70;14.00;;;19.40;56.60;;;;;;5099684;27;20238;-94
2023/05/01 05:47:26;;;;;;;37.23;11.30;;;19.40;57.20;;;;;;5116516;27;20289;-92
2023/05/01 05:49:55;;;;;;;50.07;11.67;;;19.40;56.60;;;;;;5106247;27;20285;-93
2023/05/01 05:52:22;;;;;;;41.90;12.47;;;19.40;56.60;;;;;;5110731;27;20208;-92
2023/05/01 05:54:49;;;;;;;39.37;12.43;;;19.40;56.60;;;;;;5110849;28;20341;-92
2023/05/01 05:57:16;;;;;;;44.07;11.80;;;19.40;56.60;;;;;;5100414;28;20203;-93
2023/05/01 05:59:43;;;;;;;46.73;12.07;;;19.30;56.50;;;;;;5097173;28;20305;-92
2023/05/01 06:02:10;;;;;;;36.83;11.63;;;19.40;56.60;;;;;;5111330;28;20206;-93
2023/05/01 06:04:37;;;;;;;52.23;13.40;;;19.30;56.50;;;;;;5110834;28;20257;-93
2023/05/01 06:07:06;;;;;;;36.17;12.00;;;19.30;56.50;;;;;;5110996;28;20199;-93
2023/05/01 06:09:33;;;;;;;36.20;11.70;;;19.30;56.60;;;;;;5112033;28;20202;-90
2023/05/01 06:12:00;;;;;;;33.13;11.03;;;19.30;56.50;;;;;;5104197;28;20675;-94
2023/05/01 06:14:27;;;;;;;29.83;10.67;;;19.30;56.60;;;;;;5108137;28;20271;-92
2023/05/01 06:16:54;;;;;;;31.37;11.90;;;19.30;56.60;;;;;;5105984;28;20198;-92
2023/05/01 06:19:21;;;;;;;29.60;10.63;;;19.30;56.60;;;;;;5105703;28;20206;-92
2023/05/01 06:21:48;;;;;;;37.17;11.20;;;19.30;57.20;;;;;;5107320;27;20202;-91
2023/05/01 06:24:17;;;;;;;42.80;11.83;;;19.30;56.60;;;;;;5110000;28;20274;-92
2023/05/01 06:26:44;;;;;;;32.60;11.00;;;19.30;56.60;;;;;;5108376;28;20585;-92
2023/05/01 06:29:11;;;;;;;60.20;13.23;;;19.30;56.60;;;;;;5108499;28;20237;-92
2023/05/01 06:31:38;;;;;;;46.83;12.33;;;19.30;56.70;;;;;;5108209;28;20657;-92
2023/05/01 06:34:05;;;;;;;37.87;11.10;;;19.30;56.70;;;;;;5100461;28;20281;-92
2023/05/01 06:36:32;;;;;;;50.40;12.03;;;19.30;56.70;;;;;;5092531;28;20290;-92
2023/05/01 06:38:59;;;;;;;54.33;12.33;;;19.20;56.60;;;;;;5098003;27;20199;-93
2023/05/01 06:41:28;;;;;;;35.67;10.93;;;19.30;56.70;;;;;;5116080;27;20278;-93
2023/05/01 06:43:55;;;;;;;30.57;10.93;;;19.20;56.60;;;;;;5099451;28;20237;-93
2023/05/01 06:46:22;;;;;;;58.87;13.40;;;19.30;56.70;;;;;;5107477;28;20232;-92
2023/05/01 06:48:52;;;;;;;33.30;10.13;;;19.20;56.60;;;;;;5105767;28;20226;-93
2023/05/01 06:51:19;;;;;;;34.60;10.67;;;19.20;56.60;;;;;;5095903;28;20202;-92
2023/05/01 06:53:46;;;;;;;37.33;10.70;;;19.20;56.60;;;;;;5104788;28;20229;-93
2023/05/01 06:56:13;;;;;;;32.10;10.47;;;19.30;56.70;;;;;;5105727;28;20289;-93
2023/05/01 06:58:41;;;;;;;46.53;11.47;;;19.20;56.60;;;;;;5106239;28;20284;-91
2023/05/01 07:01:09;;;;;;;43.40;11.63;;;19.30;56.80;;;;;;5094540;28;20298;-92
2023/05/01 07:03:36;;;;;;;39.10;11.20;;;19.20;56.70;;;;;;5108592;28;20247;-93
2023/05/01 07:06:02;;;;;;;39.30;11.07;;;19.20;56.70;;;;;;5111074;28;20668;-91
2023/05/01 07:08:30;;;;;;;49.43;11.87;;;19.30;56.80;;;;;;5109101;28;20832;-92
2023/05/01 07:10:57;;;;;;;40.47;10.63;;;19.30;56.80;;;;;;5107166;28;20194;-91
2023/05/01 07:13:25;;;;;;;66.03;12.87;;;19.20;56.70;;;;;;5108444;28;20303;-92
2023/05/01 07:15:53;;;;;;;31.03;9.87;;;19.30;56.80;;;;;;5111074;28;20263;-92
2023/05/01 07:18:21;;;;;;;56.43;12.40;;;19.30;56.80;;;;;;5092537;28;20242;-92
2023/05/01 07:20:49;;;;;;;35.37;9.67;;;19.30;56.80;;;;;;5104886;28;20194;-91
2023/05/01 07:23:16;;;;;;;57.67;12.27;;;19.30;56.80;;;;;;5104601;27;20206;-92
2023/05/01 07:25:45;;;;;;;44.83;10.47;;;19.30;56.80;;;;;;5104900;28;20217;-90
2023/05/01 07:28:12;;;;;;;41.90;10.73;;;19.30;57.40;;;;;;5113374;28;20216;-91
2023/05/01 07:30:40;;;;;;;44.33;10.23;;;19.40;56.90;;;;;;5113428;27;20277;-92
2023/05/01 07:33:08;;;;;;;64.97;11.70;;;19.30;56.80;;;;;;5108056;28;20194;-89
2023/05/01 07:35:36;;;;;;;31.97;9.87;;;19.30;56.80;;;;;;5090336;28;20202;-91
2023/05/01 07:38:03;;;;;;;30.63;9.47;;;19.30;56.90;;;;;;5104447;28;20700;-90
2023/05/01 07:40:32;;;;;;;54.97;11.57;;;19.30;56.80;;;;;;5098241;27;20203;-90
2023/05/01 07:42:59;;;;;;;42.87;10.17;;;19.30;56.80;;;;;;5098548;28;20290;-92
2023/05/01 07:45:26;;;;;;;46.30;11.30;;;19.30;56.90;;;;;;5106986;28;20222;-93
2023/05/01 07:47:53;;;;;;;56.90;11.93;;;19.30;56.90;;;;;;5104139;28;20226;-93
2023/05/01 07:50:22;;;;;;;51.47;11.50;;;19.30;56.80;;;;;;5104873;28;20722;-89
2023/05/01 07:52:50;;;;;;;40.67;10.07;;;19.30;56.90;;;;;;5107361;28;20259;-93
2023/05/01 07:55:18;;;;;;;34.37;9.13;;;19.30;56.90;;;;;;5098044;28;20205;-93
2023/05/01 07:57:44;;;;;;;39.03;10.27;;;19.30;56.90;;;;;;5105841;28;20205;-90
2023/05/01 08:00:12;;;;;;;36.27;10.33;;;19.30;56.90;;;;;;5093178;28;20552;-93
2023/05/01 08:02:39;;;;;;;34.33;9.40;;;19.30;56.90;;;;;;5107852;28;20229;-93
2023/05/01 08:05:08;;;;;;;33.37;10.20;;;19.40;56.90;;;;;;5108281;28;20222;-91
2023/05/01 08:07:36;;;;;;;31.40;9.60;;;19.40;56.90;;;;;;5096160;28;20689;-91
2023/05/01 08:10:03;;;;;;;40.93;10.67;;;19.40;56.90;;;;;;5090262;28;20360;-92
2023/05/01 08:12:31;;;;;;;28.10;9.13;;;19.40;56.90;;;;;;5108936;28;20202;-91
2023/05/01 08:14:58;;;;;;;36.03;9.60;;;19.40;56.90;;;;;;5108794;28;20265;-91
2023/05/01 08:17:25;;;;;;;53.13;10.97;;;19.40;56.90;;;;;;5101616;28;20297;-93
2023/05/01 08:19:55;;;;;;;49.77;10.60;;;19.40;56.90;;;;;;5088877;28;20557;-90
2023/05/01 08:22:22;;;;;;;32.83;8.73;;;19.40;56.90;;;;;;5107353;28;20654;-91
2023/05/01 08:24:50;;;;;;;34.00;9.57;;;19.40;57.00;;;;;;5108423;28;20200;-92
2023/05/01 08:27:18;;;;;;;82.10;14.03;;;19.40;56.90;;;;;;5100083;28;21023;-94
2023/05/01 08:29:44;;;;;;;30.00;9.87;;;19.50;57.10;;;;;;5105236;28;20201;-89
2023/05/01 08:32:12;;;;;;;29.47;9.83;;;19.50;57.10;;;;;;5107451;28;20281;-88
2023/05/01 08:34:39;;;;;;;35.10;10.50;;;19.50;57.10;;;;;;5108447;28;20715;-91
2023/05/01 08:37:05;;;;;;;28.47;9.47;;;19.50;57.10;;;;;;5112812;28;20613;-89
2023/05/01 08:39:32;;;;;;;39.97;11.33;;;19.50;57.10;;;;;;5108593;28;20206;-90
2023/05/01 08:42:02;;;;;;;32.23;10.50;;;19.50;57.00;;;;;;5107591;28;20293;-90
2023/05/01 08:44:31;;;;;;;28.13;10.40;;;19.50;57.10;;;;;;5107705;28;20312;-91
2023/05/01 08:47:11;;;;;;;34.73;10.97;;;19.50;57.10;;;;;;5107417;28;20229;-91
2023/05/01 08:49:40;;;;;;;33.70;10.63;;;19.60;57.20;;;;;;5108152;28;20201;-90
2023/05/01 08:52:07;;;;;;;34.10;11.53;;;19.60;57.10;;;;;;5102867;28;20289;-91
2023/05/01 08:54:37;;;;;;;29.07;10.23;;;19.60;57.20;;;;;;5103112;28;20229;-90
2023/05/01 08:57:08;;;;;;;33.40;10.90;;;19.60;57.20;;;;;;5089878;28;20214;-91
2023/05/01 08:59:36;;;;;;;28.07;10.07;;;19.60;57.20;;;;;;5103396;28;20288;-90
2023/05/01 09:02:04;;;;;;;48.77;11.93;;;19.60;57.20;;;;;;5097893;28;20291;-90
2023/05/01 09:04:34;;;;;;;38.87;11.13;;;19.60;57.20;;;;;;5105555;28;20195;-90
2023/05/01 09:07:01;;;;;;;40.37;12.03;;;19.70;57.30;;;;;;5104017;28;20222;-90
2023/05/01 09:09:28;;;;;;;45.27;11.00;;;19.70;57.30;;;;;;5108264;28;20272;-90
2023/05/01 09:12:00;;;;;;;27.63;11.13;;;19.70;57.30;;;;;;5107796;28;20750;-92
2023/05/01 09:14:30;;;;;;;60.33;12.87;;;19.70;57.30;;;;;;5102445;28;20222;-88
2023/05/01 09:16:57;;;;;;;36.83;11.37;;;19.70;57.30;;;;;;5092000;28;20207;-90
2023/05/01 09:19:25;;;;;;;28.17;9.63;;;19.70;57.30;;;;;;5111295;28;20698;-90
2023/05/01 09:21:54;;;;;;;36.33;10.10;;;19.70;57.30;;;;;;5110693;28;20209;-90
2023/05/01 09:24:24;;;;;;;29.50;10.33;;;19.80;57.40;;;;;;5111183;28;20198;-89
2023/05/01 09:26:51;;;;;;;31.40;10.10;;;19.80;57.40;;;;;;5111518;28;20222;-90
2023/05/01 09:29:38;;;;;;;32.27;10.93;;;19.80;57.40;;;;;;5110591;28;20658;-90
2023/05/01 09:32:16;;;;;;;36.33;10.13;;;19.80;57.50;;;;;;5103953;28;20198;-89
2023/05/01 09:34:44;;;;;;;29.53;9.43;;;19.80;57.40;;;;;;5092819;28;20223;-89
2023/05/01 09:37:14;;;;;;;48.47;11.00;;;19.80;57.40;;;;;;5104237;27;20258;-91
2023/05/01 09:39:40;;;;;;;37.27;10.63;;;19.90;57.50;;;;;;5109908;27;20190;-90
2023/05/01 09:42:08;;;;;;;47.33;12.30;;;19.90;57.50;;;;;;5106054;28;20197;-89
2023/05/01 09:44:44;;;;;;;39.60;11.33;;;19.90;57.60;;;;;;5108251;28;20681;-91
2023/05/01 09:47:12;;;;;;;54.03;11.40;;;19.90;57.60;;;;;;5109877;27;20225;-90
2023/05/01 09:49:48;;;;;;;32.17;11.03;;;19.90;58.10;;;;;;5112683;28;20642;-91
2023/05/01 09:52:15;;;;;;;45.13;12.93;;;20.00;57.70;;;;;;5110615;28;20195;-92
2023/05/01 09:54:43;;;;;;;33.33;11.83;;;20.00;57.50;;;;;;5108918;28;20190;-91
2023/05/01 09:57:10;;;;;;;40.87;13.03;;;20.00;57.50;;;;;;5101007;28;20230;-90
2023/05/01 09:59:37;;;;;;;31.77;13.23;;;20.00;57.50;;;;;;5091900;28;20198;-92
2023/05/01 10:02:06;;;;;;;43.03;14.97;;;20.10;57.50;;;;;;5108684;28;20233;-93
2023/05/01 10:04:34;;;;;;;34.93;13.43;;;20.00;57.50;;;;;;5099388;28;20738;-92
2023/05/01 10:07:12;;;;;;;39.60;14.50;;;20.10;57.50;;;;;;5110303;28;20289;-95
2023/05/01 10:09:40;;;;;;;40.73;15.20;;;20.10;57.50;;;;;;5110201;28;20194;-92
2023/05/01 10:12:07;;;;;;;34.70;14.33;;;20.10;57.50;;;;;;5107138;28;20294;-92
2023/05/01 10:14:37;;;;;;;45.07;16.67;;;20.10;57.50;;;;;;5099298;28;20280;-93
2023/05/01 10:17:18;;;;;;;48.13;16.07;;;20.10;57.50;;;;;;5101760;28;20263;-91
2023/05/01 10:19:45;;;;;;;32.97;14.47;;;20.20;57.60;;;;;;5110330;28;20566;-91
2023/05/01 10:22:12;;;;;;;33.93;14.23;;;20.20;57.60;;;;;;5109977;28;20206;-91
2023/05/01 10:24:40;;;;;;;35.37;14.23;;;20.20;57.60;;;;;;5110262;28;20725;-91
2023/05/01 10:27:07;;;;;;;36.80;14.50;;;20.20;57.60;;;;;;5104582;28;20230;-91
2023/05/01 10:29:35;;;;;;;34.33;14.57;;;20.30;57.70;;;;;;5104723;28;20210;-91
2023/05/01 10:32:05;;;;;;;38.40;14.87;;;20.30;57.70;;;;;;5111766;28;20197;-90
2023/05/01 10:34:38;;;;;;;38.33;14.97;;;20.30;57.60;;;;;;5105271;28;20558;-90
2023/05/01 10:37:11;;;;;;;33.07;14.43;;;20.30;57.60;;;;;;5096908;28;20291;-90
2023/05/01 10:39:38;;;;;;;36.90;14.83;;;20.40;57.70;;;;;;5103862;28;20654;-91
2023/05/01 10:42:09;;;;;;;38.10;14.37;;;20.40;57.70;;;;;;5111004;28;20252;-92
2023/05/01 10:44:37;;;;;;;44.53;15.43;;;20.40;57.70;;;;;;5106968;28;20218;-93
2023/05/01 10:47:40;;;;;;;32.00;12.67;;;20.50;58.40;;;;;;5108769;27;20217;-91
2023/05/01 10:50:09;;;;;;;41.73;14.07;;;20.50;57.80;;;;;;5091626;28;20206;-90
2023/05/01 10:53:10;;;;;;;38.90;14.53;;;20.60;57.80;;;;;;5110437;28;20297;-91
2023/05/01 10:55:38;;;;;;;44.70;14.43;;;20.60;57.90;;;;;;5105707;27;20609;-91
2023/05/01 10:58:05;;;;;;;34.03;12.70;;;20.60;57.80;;;;;;5109827;28;20239;-91
2023/05/01 11:00:33;;;;;;;42.80;14.57;;;20.60;57.80;;;;;;5095220;28;20203;-91
2023/05/01 11:03:34;;;;;;;41.70;13.27;;;20.70;57.80;;;;;;5108737;28;20203;-91
2023/05/01 11:06:11;;;;;;;34.17;12.20;;;20.70;57.90;;;;;;5109364;28;20216;-91
2023/05/01 11:08:39;;;;;;;39.97;12.77;;;20.70;57.80;;;;;;5108205;28;20309;-91
2023/05/01 11:11:44;;;;;;;28.20;10.40;;;20.70;57.80;;;;;;5110435;28;20196;-91
2023/05/01 11:14:10;;;;;;;47.63;12.57;;;20.80;58.00;;;;;;5110129;27;20286;-91
2023/05/01 11:16:42;;;;;;;33.27;11.33;;;20.80;57.90;;;;;;5111030;27;20293;-91
2023/05/01 11:19:11;;;;;;;38.20;11.60;;;20.90;58.00;;;;;;5094023;28;20198;-91
2023/05/01 11:21:40;;;;;;;28.70;10.30;;;20.90;58.10;;;;;;5102118;28;20216;-91
2023/05/01 11:24:08;;;;;;;31.53;10.97;;;20.90;58.00;;;;;;5109298;27;20202;-93
2023/05/01 11:26:38;;;;;;;30.30;10.70;;;21.00;58.10;;;;;;5108282;28;22107;-93
2023/05/01 11:29:06;;;;;;;29.67;10.67;;;20.90;58.10;;;;;;5108760;28;20198;-91
2023/05/01 11:31:33;;;;;;;35.50;10.83;;;21.10;58.20;;;;;;5105274;27;20247;-91
2023/05/01 11:34:01;;;;;;;37.40;10.80;;;21.10;58.20;;;;;;5106100;28;20298;-92
2023/05/01 11:36:29;;;;;;;26.63;9.23;;;21.10;58.10;;;;;;5106027;27;20282;-92
2023/05/01 11:38:59;;;;;;;32.70;10.07;;;21.20;58.30;;;;;;5107241;28;20203;-91
2023/05/01 11:41:27;;;;;;;30.47;9.80;;;21.30;58.40;;;;;;5107855;28;20217;-92
2023/05/01 11:43:57;;;;;;;25.33;10.10;;;21.30;58.30;;;;;;5109157;28;20690;-92
2023/05/01 11:46:26;;;;;;;31.10;10.70;;;21.30;58.30;;;;;;5104799;27;21097;-91
2023/05/01 11:48:53;;;;;;;40.40;10.23;;;21.30;58.30;;;;;;5111249;27;20741;-91
2023/05/01 11:51:21;;;;;;;27.90;9.93;;;21.40;58.30;;;;;;5110830;27;20286;-92
2023/05/01 11:54:04;;;;;;;51.77;11.43;;;21.40;58.30;;;;;;5106999;27;20194;-91
2023/05/01 11:56:32;;;;;;;33.40;10.27;;;21.40;58.40;;;;;;5106810;28;20285;-93
2023/05/01 11:59:10;;;;;;;40.53;10.77;;;21.50;58.40;;;;;;5107009;28;20314;-92
2023/05/01 12:01:38;;;;;;;25.00;9.07;;;21.50;58.30;;;;;;5109272;28;20223;-91
2023/05/01 12:04:06;;;;;;;33.53;10.37;;;21.50;58.30;;;;;;5108616;28;20661;-92
2023/05/01 12:06:39;;;;;;;26.57;8.80;;;21.60;58.40;;;;;;5103060;28;20229;-92
2023/05/01 12:09:08;;;;;;;28.53;9.03;;;21.60;58.40;;;;;;5089064;28;20203;-92
2023/05/01 12:11:35;;;;;;;21.80;8.27;;;21.70;58.40;;;;;;5089135;28;20294;-91
2023/05/01 12:14:03;;;;;;;28.17;8.53;;;21.70;58.40;;;;;;5101666;28;20654;-93
2023/05/01 12:16:31;;;;;;;28.97;8.70;;;21.70;58.40;;;;;;5100651;28;20209;-93
2023/05/01 12:18:58;;;;;;;35.63;10.10;;;21.70;58.40;;;;;;5089583;28;20237;-92
2023/05/01 12:21:26;;;;;;;20.60;8.13;;;21.80;58.40;;;;;;5107937;28;20232;-93
2023/05/01 12:23:54;;;;;;;36.17;9.63;;;21.80;58.40;;;;;;5103451;28;20297;-92
2023/05/01 12:26:25;;;;;;;62.23;12.03;;;21.80;58.40;;;;;;5096440;28;20222;-92
2023/05/01 12:28:56;;;;;;;31.00;9.90;;;21.90;58.40;;;;;;5120205;27;20684;-92
2023/05/01 12:31:24;;;;;;;38.63;10.23;;;21.90;58.50;;;;;;5104186;28;20295;-92
2023/05/01 12:33:55;;;;;;;27.53;9.10;;;22.00;58.50;;;;;;5108629;28;20730;-92
2023/05/01 12:36:26;;;;;;;67.60;12.03;;;22.00;58.50;;;;;;5111318;27;20639;-92
2023/05/01 12:38:57;;;;;;;32.27;9.93;;;22.00;58.50;;;;;;5093211;28;20255;-92
2023/05/01 12:41:38;;;;;;;22.93;8.73;;;22.10;58.50;;;;;;5098580;28;20240;-92